createdAt,value
2019-05-06T00:01:53.994Z,-2.00
2019-05-06T00:04:24.730Z,-2.10
2019-05-06T00:06:54.976Z,-2.20
2019-05-06T00:09:24.241Z,-2.20
2019-05-06T00:11:54.675Z,-2.20
2019-05-06T00:14:23.922Z,-2.30
2019-05-06T00:16:54.756Z,-2.20
2019-05-06T00:19:24.699Z,-2.30
2019-05-06T00:21:54.194Z,-2.30
2019-05-06T00:24:25.342Z,-2.20
2019-05-06T00:27:14.422Z,-2.20
2019-05-06T00:29:43.908Z,-2.20
2019-05-06T00:32:15.028Z,-2.30
2019-05-06T00:34:44.172Z,-2.30
2019-05-06T00:37:14.624Z,-2.30
2019-05-06T00:39:48.308Z,-2.40
2019-05-06T00:42:18.834Z,-2.50
2019-05-06T00:44:47.728Z,-2.40
2019-05-06T00:47:16.786Z,-2.30
2019-05-06T00:49:46.124Z,-2.20
2019-05-06T00:52:14.907Z,-2.30
2019-05-06T00:54:43.970Z,-2.40
2019-05-06T00:57:14.000Z,-2.50
2019-05-06T00:59:44.172Z,-2.50
2019-05-06T01:02:14.025Z,-2.60
2019-05-06T01:04:44.590Z,-2.70
2019-05-06T01:07:14.030Z,-2.70
2019-05-06T01:09:43.912Z,-2.60
2019-05-06T01:12:14.330Z,-2.70
2019-05-06T01:14:45.046Z,-2.60
2019-05-06T01:17:14.480Z,-2.30
2019-05-06T01:19:45.804Z,-2.30
2019-05-06T01:22:14.489Z,-2.20
2019-05-06T01:24:43.974Z,-2.30
2019-05-06T01:27:14.522Z,-2.30
2019-05-06T01:29:44.156Z,-2.40
2019-05-06T01:32:13.928Z,-2.60
2019-05-06T01:34:44.673Z,-2.60
2019-05-06T01:37:14.286Z,-2.70
2019-05-06T01:39:54.155Z,-2.70
2019-05-06T01:42:37.089Z,-2.60
2019-05-06T01:45:09.017Z,-2.70
2019-05-06T01:47:37.742Z,-2.90
2019-05-06T01:50:07.170Z,-2.90
2019-05-06T01:52:36.041Z,-2.80
2019-05-06T01:55:06.883Z,-2.90
2019-05-06T01:57:35.841Z,-3.00
2019-05-06T02:00:07.009Z,-2.90
2019-05-06T02:02:35.878Z,-2.90
2019-05-06T02:05:05.712Z,-2.90
2019-05-06T02:07:34.918Z,-2.90
2019-05-06T02:10:05.875Z,-2.90
2019-05-06T02:12:34.762Z,-2.80
2019-05-06T02:15:04.218Z,-2.80
2019-05-06T02:17:34.542Z,-2.70
2019-05-06T02:20:04.307Z,-2.60
2019-05-06T02:22:40.769Z,-2.70
2019-05-06T02:25:13.733Z,-2.80
2019-05-06T02:27:42.082Z,-2.90
2019-05-06T02:30:27.810Z,-3.00
2019-05-06T02:32:58.179Z,-3.00
2019-05-06T02:35:40.953Z,-3.10
2019-05-06T02:38:11.306Z,-3.10
2019-05-06T02:40:42.632Z,-3.10
2019-05-06T02:43:13.412Z,-3.10
2019-05-06T02:45:43.296Z,-3.10
2019-05-06T02:48:14.012Z,-3.10
2019-05-06T02:50:47.275Z,-3.10
2019-05-06T02:53:17.690Z,-3.20
2019-05-06T02:55:46.632Z,-3.20
2019-05-06T02:58:15.537Z,-3.20
2019-05-06T03:00:44.417Z,-3.20
2019-05-06T03:03:13.965Z,-3.10
2019-05-06T03:05:44.165Z,-3.00
2019-05-06T03:08:13.723Z,-2.80
2019-05-06T03:10:44.243Z,-2.60
2019-05-06T03:13:14.171Z,-2.50
2019-05-06T03:15:43.774Z,-2.40
2019-05-06T03:18:14.934Z,-2.30
2019-05-06T03:20:58.898Z,-2.20
2019-05-06T03:23:38.333Z,-2.20
2019-05-06T03:26:07.169Z,-2.20
2019-05-06T03:28:36.010Z,-2.10
2019-05-06T03:31:07.020Z,-2.10
2019-05-06T03:33:55.323Z,-2.10
2019-05-06T03:36:15.399Z,-2.10
2019-05-06T03:38:35.983Z,-2.10
2019-05-06T03:41:04.748Z,-2.10
2019-05-06T03:43:33.985Z,-2.10
2019-05-06T03:46:23.209Z,-2.10
2019-05-06T03:48:53.123Z,-2.10
2019-05-06T03:51:23.350Z,-2.20
2019-05-06T03:53:54.082Z,-2.30
2019-05-06T03:56:24.034Z,-2.30
2019-05-06T03:58:54.199Z,-2.30
2019-05-06T04:01:24.010Z,-2.20
2019-05-06T04:03:57.024Z,-2.20
2019-05-06T04:06:24.270Z,-2.10
2019-05-06T04:08:53.848Z,-2.10
2019-05-06T04:11:24.582Z,-2.10
2019-05-06T04:13:54.082Z,-2.00
2019-05-06T04:16:25.205Z,-1.90
2019-05-06T04:19:04.117Z,-1.80
2019-05-06T04:21:34.063Z,-1.80
2019-05-06T04:24:04.550Z,-1.70
2019-05-06T04:26:37.907Z,-1.60
2019-05-06T04:29:06.723Z,-1.60
2019-05-06T04:31:36.644Z,-1.50
2019-05-06T04:34:14.094Z,-1.30
2019-05-06T04:36:35.880Z,-1.20
2019-05-06T04:39:06.178Z,-1.10
2019-05-06T04:41:35.225Z,-1.10
2019-05-06T04:44:04.560Z,-0.90
2019-05-06T04:46:34.863Z,-0.80
2019-05-06T04:49:04.218Z,-0.70
2019-05-06T04:51:36.810Z,-0.50
2019-05-06T04:54:05.132Z,-0.40
2019-05-06T04:56:34.657Z,-0.30
2019-05-06T04:59:06.331Z,-0.30
2019-05-06T05:01:34.327Z,-0.30
2019-05-06T05:04:03.665Z,-0.30
2019-05-06T05:06:32.975Z,-0.20
2019-05-06T05:09:02.897Z,0.00
2019-05-06T05:11:42.694Z,0.00
2019-05-06T05:14:30.310Z,0.10
2019-05-06T05:17:12.918Z,0.30
2019-05-06T05:19:42.920Z,0.40
2019-05-06T05:22:12.452Z,0.60
2019-05-06T05:24:42.558Z,0.80
2019-05-06T05:27:12.541Z,1.30
2019-05-06T05:29:42.377Z,1.80
2019-05-06T05:32:12.793Z,2.00
2019-05-06T05:34:43.589Z,2.00
2019-05-06T05:37:12.589Z,1.90
2019-05-06T05:39:42.599Z,1.80
2019-05-06T05:42:13.386Z,1.70
2019-05-06T05:44:44.350Z,1.70
2019-05-06T05:47:13.169Z,1.70
2019-05-06T05:49:59.735Z,1.70
2019-05-06T05:52:28.947Z,2.00
2019-05-06T05:54:58.304Z,2.50
2019-05-06T05:57:27.135Z,3.00
2019-05-06T05:59:55.865Z,3.50
2019-05-06T06:02:25.122Z,3.80
2019-05-06T06:04:57.448Z,4.00
2019-05-06T06:07:24.661Z,4.20
2019-05-06T06:09:55.244Z,4.30
2019-05-06T06:12:24.011Z,4.40
2019-05-06T06:14:56.043Z,4.80
2019-05-06T06:17:42.621Z,5.10
2019-05-06T06:20:22.764Z,5.40
2019-05-06T06:22:52.319Z,5.70
2019-05-06T06:25:23.568Z,6.20
2019-05-06T06:27:52.387Z,6.60
2019-05-06T06:30:34.895Z,7.00
2019-05-06T06:33:03.677Z,7.40
2019-05-06T06:35:40.000Z,7.30
2019-05-06T06:38:12.197Z,7.10
2019-05-06T06:40:42.577Z,7.40
2019-05-06T06:43:13.377Z,7.80
2019-05-06T06:45:42.428Z,8.30
2019-05-06T06:48:12.319Z,7.80
2019-05-06T06:50:42.649Z,8.40
2019-05-06T06:53:12.306Z,9.20
2019-05-06T06:55:42.822Z,10.10
2019-05-06T06:58:19.321Z,10.70
2019-05-06T07:00:55.770Z,10.90
2019-05-06T07:03:27.156Z,10.80
2019-05-06T07:05:57.723Z,8.50
2019-05-06T07:08:36.537Z,8.30
2019-05-06T07:10:56.848Z,9.00
2019-05-06T07:13:26.146Z,7.90
2019-05-06T07:15:54.961Z,8.20
2019-05-06T07:18:23.617Z,9.30
2019-05-06T07:21:03.200Z,9.40
2019-05-06T07:23:34.739Z,9.50
2019-05-06T07:26:03.626Z,9.60
2019-05-06T07:28:32.736Z,9.30
2019-05-06T07:31:17.584Z,9.00
2019-05-06T07:33:33.528Z,8.60
2019-05-06T07:36:02.695Z,8.50
2019-05-06T07:38:32.549Z,8.70
2019-05-06T07:41:06.231Z,9.50
2019-05-06T07:43:39.413Z,9.20
2019-05-06T07:46:16.097Z,9.60
2019-05-06T07:48:44.762Z,9.40
2019-05-06T07:51:13.535Z,9.50
2019-05-06T07:53:42.846Z,9.30
2019-05-06T07:56:12.655Z,9.00
2019-05-06T07:58:43.338Z,8.30
2019-05-06T08:01:13.544Z,8.20
2019-05-06T08:03:42.988Z,8.40
2019-05-06T08:06:13.187Z,8.40
2019-05-06T08:08:43.357Z,8.60
2019-05-06T08:11:12.664Z,8.00
2019-05-06T08:13:43.491Z,8.60
2019-05-06T08:16:13.158Z,8.80
2019-05-06T08:18:42.684Z,8.60
2019-05-06T08:21:18.875Z,8.00
2019-05-06T08:23:49.340Z,8.10
2019-05-06T08:26:18.307Z,8.40
2019-05-06T08:28:47.231Z,8.80
2019-05-06T08:31:17.575Z,8.10
2019-05-06T08:33:46.435Z,7.50
2019-05-06T08:36:19.710Z,7.70
2019-05-06T08:39:02.893Z,7.90
2019-05-06T08:41:33.153Z,8.10
2019-05-06T08:44:02.814Z,8.40
2019-05-06T08:46:32.638Z,8.50
2019-05-06T08:49:03.095Z,8.30
2019-05-06T08:51:39.682Z,7.20
2019-05-06T08:54:10.118Z,7.00
2019-05-06T08:56:38.901Z,7.00
2019-05-06T08:59:08.449Z,7.10
2019-05-06T09:01:38.831Z,7.40
2019-05-06T09:04:12.846Z,7.50
2019-05-06T09:06:38.908Z,7.20
2019-05-06T09:09:08.824Z,7.00
2019-05-06T09:11:37.879Z,7.10
2019-05-06T09:14:09.700Z,7.10
2019-05-06T09:16:37.931Z,7.50
2019-05-06T09:19:07.221Z,7.90
2019-05-06T09:21:36.154Z,8.20
2019-05-06T09:24:05.152Z,8.70
2019-05-06T09:26:44.284Z,9.10
2019-05-06T09:29:27.085Z,7.90
2019-05-06T09:32:01.778Z,7.90
2019-05-06T09:34:52.781Z,8.40
2019-05-06T09:37:23.533Z,8.70
2019-05-06T09:39:53.407Z,9.00
2019-05-06T09:42:23.068Z,8.80
2019-05-06T09:44:54.184Z,9.00
2019-05-06T09:47:24.065Z,9.00
2019-05-06T09:49:53.278Z,8.20
2019-05-06T09:52:23.089Z,8.40
2019-05-06T09:54:53.927Z,8.20
2019-05-06T09:57:27.065Z,8.00
2019-05-06T09:59:55.795Z,8.20
2019-05-06T10:02:24.560Z,8.80
2019-05-06T10:04:53.346Z,8.70
2019-05-06T10:07:22.627Z,8.50
2019-05-06T10:09:52.658Z,8.90
2019-05-06T10:12:22.569Z,9.50
2019-05-06T10:14:53.254Z,9.40
2019-05-06T10:17:21.901Z,10.40
2019-05-06T10:19:50.774Z,10.60
2019-05-06T10:22:19.590Z,10.70
2019-05-06T10:24:48.563Z,10.90
2019-05-06T10:27:17.586Z,11.90
2019-05-06T10:29:47.974Z,11.20
2019-05-06T10:32:24.479Z,12.20
2019-05-06T10:34:53.403Z,12.00
2019-05-06T10:37:26.714Z,12.10
2019-05-06T10:40:10.380Z,12.40
2019-05-06T10:42:48.213Z,11.60
2019-05-06T10:45:32.449Z,12.70
2019-05-06T10:48:02.364Z,11.30
2019-05-06T10:50:32.953Z,10.60
2019-05-06T10:53:15.731Z,11.40
2019-05-06T10:55:49.166Z,11.40
2019-05-06T10:58:17.922Z,11.70
2019-05-06T11:00:52.765Z,12.80
2019-05-06T11:03:22.832Z,11.40
2019-05-06T11:05:53.348Z,12.20
2019-05-06T11:08:22.640Z,12.30
2019-05-06T11:10:53.534Z,12.80
2019-05-06T11:13:24.214Z,13.20
2019-05-06T11:15:55.417Z,13.90
2019-05-06T11:18:23.416Z,14.70
2019-05-06T11:20:55.725Z,15.20
2019-05-06T11:23:23.134Z,15.80
2019-05-06T11:25:52.585Z,15.20
2019-05-06T11:28:42.666Z,13.00
2019-05-06T11:31:14.120Z,13.50
2019-05-06T11:33:47.768Z,11.10
2019-05-06T11:36:18.158Z,10.20
2019-05-06T11:38:48.533Z,9.70
2019-05-06T11:41:17.620Z,9.30
2019-05-06T11:43:46.471Z,9.60
2019-05-06T11:46:15.407Z,9.80
2019-05-06T11:48:44.295Z,9.40
2019-05-06T11:51:14.831Z,9.10
2019-05-06T11:53:43.615Z,9.10
2019-05-06T11:56:12.836Z,9.10
2019-05-06T11:58:43.366Z,9.10
2019-05-06T12:01:16.711Z,9.10
2019-05-06T12:03:45.494Z,9.20
2019-05-06T12:06:23.211Z,9.20
2019-05-06T12:08:52.583Z,9.00
2019-05-06T12:11:23.684Z,8.90
2019-05-06T12:13:53.172Z,8.90
2019-05-06T12:16:26.197Z,9.00
2019-05-06T12:18:55.676Z,9.20
2019-05-06T12:21:24.568Z,9.00
2019-05-06T12:23:53.924Z,9.20
2019-05-06T12:26:24.507Z,9.10
2019-05-06T12:28:53.454Z,9.20
2019-05-06T12:31:23.621Z,9.50
2019-05-06T12:33:53.269Z,9.90
2019-05-06T12:36:23.485Z,9.50
2019-05-06T12:39:06.421Z,9.70
2019-05-06T12:41:33.554Z,10.30
2019-05-06T12:44:03.276Z,11.10
2019-05-06T12:46:39.963Z,11.90
2019-05-06T12:49:08.688Z,12.10
2019-05-06T12:51:37.656Z,12.10
2019-05-06T12:54:06.572Z,11.60
2019-05-06T12:56:35.422Z,11.30
2019-05-06T12:59:04.233Z,10.90
2019-05-06T13:01:34.250Z,10.30
2019-05-06T13:04:04.516Z,10.00
2019-05-06T13:06:34.110Z,10.30
2019-05-06T13:09:05.153Z,10.20
2019-05-06T13:11:33.541Z,10.00
2019-05-06T13:14:04.242Z,9.60
2019-05-06T13:16:34.776Z,9.60
2019-05-06T13:19:03.790Z,9.80
2019-05-06T13:21:32.945Z,10.00
2019-05-06T13:24:08.656Z,9.90
2019-05-06T13:26:42.906Z,9.90
2019-05-06T13:29:15.655Z,10.30
2019-05-06T13:31:44.514Z,10.60
2019-05-06T13:34:17.419Z,11.30
2019-05-06T13:36:46.396Z,12.10
2019-05-06T13:39:15.580Z,12.00
2019-05-06T13:41:45.025Z,11.80
2019-05-06T13:44:15.448Z,11.40
2019-05-06T13:46:47.224Z,12.00
2019-05-06T13:49:24.198Z,12.10
2019-05-06T13:52:04.635Z,12.20
2019-05-06T13:54:33.649Z,12.10
2019-05-06T13:57:03.468Z,11.10
2019-05-06T13:59:35.120Z,11.00
2019-05-06T14:02:08.417Z,11.70
2019-05-06T14:04:37.635Z,11.60
2019-05-06T14:07:07.451Z,11.60
2019-05-06T14:09:40.248Z,11.00
2019-05-06T14:12:07.365Z,10.70
2019-05-06T14:14:36.130Z,10.50
2019-05-06T14:17:06.582Z,10.00
2019-05-06T14:19:35.411Z,10.00
2019-05-06T14:22:04.218Z,10.00
2019-05-06T14:24:34.051Z,9.90
2019-05-06T14:27:04.472Z,9.70
2019-05-06T14:29:42.169Z,9.70
2019-05-06T14:32:14.736Z,9.80
2019-05-06T14:34:43.470Z,10.00
2019-05-06T14:37:12.874Z,10.00
2019-05-06T14:39:54.007Z,9.90
2019-05-06T14:42:16.989Z,9.80
2019-05-06T14:44:45.791Z,9.80
2019-05-06T14:47:23.296Z,10.00
2019-05-06T14:49:53.125Z,10.30
2019-05-06T14:52:22.749Z,10.60
2019-05-06T14:54:54.892Z,10.60
2019-05-06T14:57:24.854Z,10.20
2019-05-06T14:59:55.689Z,10.30
2019-05-06T15:02:27.096Z,10.90
2019-05-06T15:04:56.462Z,11.30
2019-05-06T15:07:25.350Z,11.00
2019-05-06T15:10:08.033Z,10.90
2019-05-06T15:12:25.755Z,10.50
2019-05-06T15:14:54.507Z,10.40
2019-05-06T15:17:23.405Z,10.20
2019-05-06T15:19:52.854Z,10.20
2019-05-06T15:22:22.645Z,10.10
2019-05-06T15:24:53.673Z,10.00
2019-05-06T15:27:22.971Z,9.80
2019-05-06T15:29:55.813Z,9.70
2019-05-06T15:32:28.969Z,9.60
2019-05-06T15:34:59.416Z,9.60
2019-05-06T15:37:42.536Z,9.60
2019-05-06T15:40:12.214Z,9.60
2019-05-06T15:42:42.491Z,9.60
2019-05-06T15:45:12.632Z,9.70
2019-05-06T15:47:43.082Z,9.80
2019-05-06T15:50:12.862Z,9.80
2019-05-06T15:52:43.555Z,9.90
2019-05-06T15:55:13.139Z,10.00
2019-05-06T15:57:43.502Z,10.00
2019-05-06T16:00:16.416Z,10.10
2019-05-06T16:02:45.479Z,10.10
2019-05-06T16:05:20.075Z,10.20
2019-05-06T16:07:45.500Z,10.20
2019-05-06T16:10:16.625Z,10.00
2019-05-06T16:12:49.119Z,9.90
2019-05-06T16:15:18.407Z,9.80
2019-05-06T16:17:47.156Z,9.90
2019-05-06T16:20:16.087Z,9.90
2019-05-06T16:22:46.836Z,9.90
2019-05-06T16:25:17.949Z,9.90
2019-05-06T16:27:51.214Z,9.90
2019-05-06T16:30:24.516Z,9.90
2019-05-06T16:32:53.857Z,9.80
2019-05-06T16:35:23.020Z,9.80
2019-05-06T16:37:52.341Z,9.70
2019-05-06T16:40:22.971Z,9.70
2019-05-06T16:42:54.390Z,9.70
2019-05-06T16:45:23.485Z,9.60
2019-05-06T16:47:52.906Z,9.60
2019-05-06T16:50:22.758Z,9.60
2019-05-06T16:52:52.643Z,9.60
2019-05-06T16:55:40.472Z,9.70
2019-05-06T16:58:14.332Z,9.70
2019-05-06T17:00:43.518Z,9.60
2019-05-06T17:03:19.893Z,9.70
2019-05-06T17:06:06.863Z,9.70
2019-05-06T17:08:36.621Z,9.70
2019-05-06T17:11:05.499Z,9.60
2019-05-06T17:13:37.505Z,9.50
2019-05-06T17:16:04.988Z,9.50
2019-05-06T17:18:33.822Z,9.50
2019-05-06T17:21:02.720Z,9.50
2019-05-06T17:23:32.428Z,9.50
2019-05-06T17:26:01.518Z,9.50
2019-05-06T17:28:43.715Z,9.50
2019-05-06T17:31:22.309Z,9.50
2019-05-06T17:33:52.360Z,9.40
2019-05-06T17:36:23.095Z,9.40
2019-05-06T17:38:53.706Z,9.30
2019-05-06T17:41:26.115Z,9.20
2019-05-06T17:43:53.149Z,9.20
2019-05-06T17:46:23.550Z,9.20
2019-05-06T17:49:02.246Z,9.10
2019-05-06T17:51:38.325Z,9.10
2019-05-06T17:54:07.525Z,9.10
2019-05-06T17:56:36.545Z,9.00
2019-05-06T17:59:05.406Z,9.00
2019-05-06T18:01:36.190Z,9.00
2019-05-06T18:04:05.741Z,8.90
2019-05-06T18:06:34.790Z,8.90
2019-05-06T18:09:05.416Z,8.90
2019-05-06T18:11:34.302Z,8.90
2019-05-06T18:14:04.063Z,8.80
2019-05-06T18:16:33.689Z,8.80
2019-05-06T18:19:03.304Z,8.60
2019-05-06T18:21:32.643Z,8.60
2019-05-06T18:24:03.015Z,8.50
2019-05-06T18:26:32.779Z,8.40
2019-05-06T18:29:02.925Z,8.30
2019-05-06T18:31:33.429Z,8.30
2019-05-06T18:34:06.276Z,8.20
2019-05-06T18:36:33.896Z,8.10
2019-05-06T18:39:03.351Z,8.10
2019-05-06T18:41:32.992Z,8.00
2019-05-06T18:44:02.402Z,7.90
2019-05-06T18:46:32.718Z,7.80
2019-05-06T18:49:02.539Z,7.70
2019-05-06T18:51:31.636Z,7.80
2019-05-06T18:54:02.915Z,7.70
2019-05-06T18:56:31.998Z,7.70
2019-05-06T18:59:02.840Z,7.70
2019-05-06T19:01:32.774Z,7.70
2019-05-06T19:04:04.082Z,7.50
2019-05-06T19:06:33.181Z,7.40
2019-05-06T19:09:04.021Z,7.30
2019-05-06T19:11:33.133Z,7.20
2019-05-06T19:14:02.162Z,7.20
2019-05-06T19:16:47.681Z,7.20
2019-05-06T19:19:03.762Z,7.20
2019-05-06T19:21:32.994Z,7.10
2019-05-06T19:24:02.825Z,7.00
2019-05-06T19:26:32.702Z,6.90
2019-05-06T19:29:04.365Z,6.70
2019-05-06T19:31:33.569Z,6.60
2019-05-06T19:34:03.218Z,6.40
2019-05-06T19:36:34.762Z,6.40
2019-05-06T19:39:04.747Z,6.30
2019-05-06T19:41:33.951Z,6.20
2019-05-06T19:44:03.566Z,6.20
2019-05-06T19:46:32.778Z,6.10
2019-05-06T19:49:02.099Z,6.10
2019-05-06T19:51:33.019Z,6.00
2019-05-06T19:54:02.337Z,6.00
2019-05-06T19:56:31.401Z,5.90
2019-05-06T19:59:02.110Z,5.90
2019-05-06T20:01:32.297Z,5.80
2019-05-06T20:04:02.528Z,5.70
2019-05-06T20:06:42.431Z,5.50
2019-05-06T20:09:16.239Z,5.20
2019-05-06T20:11:57.080Z,4.90
2019-05-06T20:14:25.689Z,4.70
2019-05-06T20:16:54.690Z,4.40
2019-05-06T20:19:30.753Z,4.20
2019-05-06T20:21:55.073Z,4.00
2019-05-06T20:24:24.138Z,4.00
2019-05-06T20:26:53.227Z,4.00
2019-05-06T20:29:22.526Z,3.90
2019-05-06T20:31:53.509Z,3.60
2019-05-06T20:34:24.991Z,3.40
2019-05-06T20:36:53.781Z,3.20
2019-05-06T20:39:24.309Z,3.00
2019-05-06T20:41:53.338Z,2.90
2019-05-06T20:44:23.061Z,2.80
2019-05-06T20:46:52.821Z,2.60
2019-05-06T20:49:22.060Z,2.60
2019-05-06T20:51:52.163Z,2.50
2019-05-06T20:54:23.567Z,2.50
2019-05-06T20:56:53.102Z,2.40
2019-05-06T20:59:22.910Z,2.30
2019-05-06T21:01:52.430Z,2.30
2019-05-06T21:04:22.893Z,2.20
2019-05-06T21:06:53.229Z,2.00
2019-05-06T21:09:23.281Z,1.80
2019-05-06T21:11:52.787Z,1.70
2019-05-06T21:14:23.235Z,1.60
2019-05-06T21:16:52.127Z,1.50
2019-05-06T21:19:22.240Z,1.40
2019-05-06T21:21:52.732Z,1.30
2019-05-06T21:24:22.570Z,1.20
2019-05-06T21:26:53.134Z,1.20
2019-05-06T21:29:23.184Z,1.10
2019-05-06T21:31:53.056Z,1.10
2019-05-06T21:34:22.500Z,1.00
2019-05-06T21:36:53.063Z,1.10
2019-05-06T21:39:22.379Z,1.20
2019-05-06T21:41:52.173Z,1.30
2019-05-06T21:44:22.826Z,1.40
2019-05-06T21:46:53.902Z,1.50
2019-05-06T21:49:22.971Z,1.50
2019-05-06T21:51:52.311Z,1.50
2019-05-06T21:54:23.185Z,1.60
2019-05-06T21:56:53.221Z,1.70
2019-05-06T21:59:22.867Z,1.70
2019-05-06T22:01:52.089Z,1.80
2019-05-06T22:04:23.221Z,1.70
2019-05-06T22:06:52.455Z,1.80
2019-05-06T22:09:22.560Z,1.80
2019-05-06T22:11:52.913Z,1.80
2019-05-06T22:14:22.921Z,1.80
2019-05-06T22:16:52.066Z,1.80
2019-05-06T22:22:07.253Z,1.70
2019-05-06T22:24:52.518Z,1.70
2019-05-06T22:27:22.000Z,1.60
2019-05-06T22:29:52.210Z,1.60
2019-05-06T22:32:23.134Z,1.50
2019-05-06T22:34:51.918Z,1.60
2019-05-06T22:37:22.128Z,1.60
2019-05-06T22:39:52.721Z,1.50
2019-05-06T22:42:22.580Z,1.40
2019-05-06T22:44:52.357Z,1.30
2019-05-06T22:47:22.973Z,1.20
2019-05-06T22:49:54.100Z,1.00
2019-05-06T22:52:23.476Z,0.90
2019-05-06T22:54:52.801Z,0.70
2019-05-06T22:57:23.494Z,0.60
2019-05-06T22:59:53.206Z,0.40
2019-05-06T23:02:24.161Z,0.40
2019-05-06T23:04:54.694Z,0.30
2019-05-06T23:07:23.956Z,0.20
2019-05-06T23:09:52.726Z,0.10
2019-05-06T23:12:23.141Z,0.10
2019-05-06T23:14:52.937Z,0.00
2019-05-06T23:17:22.017Z,-0.10
2019-05-06T23:19:52.743Z,-0.10
2019-05-06T23:22:22.770Z,-0.10
2019-05-06T23:24:52.230Z,-0.10
2019-05-06T23:27:23.286Z,-0.20
2019-05-06T23:29:52.659Z,-0.20
2019-05-06T23:32:22.906Z,-0.20
2019-05-06T23:34:52.516Z,-0.30
2019-05-06T23:37:22.732Z,-0.30
2019-05-06T23:40:28.612Z,-0.40
2019-05-06T23:43:33.847Z,-0.40
2019-05-06T23:46:39.913Z,-0.50
2019-05-06T23:49:45.204Z,-0.60
2019-05-06T23:52:51.999Z,-0.60
2019-05-06T23:55:57.287Z,-0.60
2019-05-06T23:58:24.956Z,-0.70
